sensor_id;sensor_type;location;lat;lon;timestamp;P1;durP1;ratioP1;P2;durP2;ratioP2
39322;SDS011;25036;53.638;10.134;2022-09-09T00:00:20;29.10;;;22.17;;
39322;SDS011;25036;53.638;10.134;2022-09-09T00:02:28;26.83;;;22.02;;
39322;SDS011;25036;53.638;10.134;2022-09-09T00:04:40;28.60;;;22.98;;
39322;SDS011;25036;53.638;10.134;2022-09-09T00:05:47;38.25;;;23.05;;
39322;SDS011;25036;53.638;10.134;2022-09-09T00:06:56;27.75;;;22.70;;
39322;SDS011;25036;53.638;10.134;2022-09-09T00:07:59;39.30;;;23.42;;
39322;SDS011;25036;53.638;10.134;2022-09-09T00:09:06;31.10;;;24.02;;
39322;SDS011;25036;53.638;10.134;2022-09-09T00:11:17;33.80;;;23.77;;
39322;SDS011;25036;53.638;10.134;2022-09-09T00:13:33;29.17;;;22.90;;
39322;SDS011;25036;53.638;10.134;2022-09-09T00:15:38;34.50;;;23.50;;
39322;SDS011;25036;53.638;10.134;2022-09-09T00:16:40;31.23;;;23.52;;
39322;SDS011;25036;53.638;10.134;2022-09-09T00:17:51;39.58;;;23.15;;
39322;SDS011;25036;53.638;10.134;2022-09-09T00:19:15;30.88;;;23.50;;
39322;SDS011;25036;53.638;10.134;2022-09-09T00:20:22;31.42;;;22.90;;
39322;SDS011;25036;53.638;10.134;2022-09-09T00:22:33;34.10;;;23.40;;
39322;SDS011;25036;53.638;10.134;2022-09-09T00:23:35;40.83;;;22.48;;
39322;SDS011;25036;53.638;10.134;2022-09-09T00:24:38;32.28;;;22.48;;
39322;SDS011;25036;53.638;10.134;2022-09-09T00:27:01;34.20;;;21.75;;
39322;SDS011;25036;53.638;10.134;2022-09-09T00:28:10;33.30;;;21.85;;
39322;SDS011;25036;53.638;10.134;2022-09-09T00:31:25;40.53;;;23.07;;
39322;SDS011;25036;53.638;10.134;2022-09-09T00:32:28;33.30;;;22.23;;
39322;SDS011;25036;53.638;10.134;2022-09-09T00:33:29;42.58;;;22.08;;
39322;SDS011;25036;53.638;10.134;2022-09-09T00:34:30;34.20;;;21.20;;
39322;SDS011;25036;53.638;10.134;2022-09-09T00:35:32;37.20;;;21.05;;
39322;SDS011;25036;53.638;10.134;2022-09-09T00:36:33;43.08;;;20.92;;
39322;SDS011;25036;53.638;10.134;2022-09-09T00:37:35;55.05;;;22.20;;
39322;SDS011;25036;53.638;10.134;2022-09-09T00:38:41;28.98;;;18.08;;
39322;SDS011;25036;53.638;10.134;2022-09-09T00:39:42;29.05;;;17.50;;
39322;SDS011;25036;53.638;10.134;2022-09-09T00:40:51;37.78;;;18.50;;
39322;SDS011;25036;53.638;10.134;2022-09-09T00:42:11;33.65;;;17.52;;
39322;SDS011;25036;53.638;10.134;2022-09-09T00:44:32;27.45;;;18.05;;
39322;SDS011;25036;53.638;10.134;2022-09-09T00:48:48;26.02;;;16.40;;
39322;SDS011;25036;53.638;10.134;2022-09-09T00:50:55;23.50;;;16.20;;
39322;SDS011;25036;53.638;10.134;2022-09-09T00:52:03;28.00;;;17.30;;
39322;SDS011;25036;53.638;10.134;2022-09-09T00:55:33;27.08;;;15.93;;
39322;SDS011;25036;53.638;10.134;2022-09-09T00:57:27;25.02;;;15.60;;
39322;SDS011;25036;53.638;10.134;2022-09-09T00:58:00;22.90;;;15.60;;
39322;SDS011;25036;53.638;10.134;2022-09-09T01:00:29;18.67;;;14.55;;
39322;SDS011;25036;53.638;10.134;2022-09-09T01:01:29;25.53;;;14.73;;
39322;SDS011;25036;53.638;10.134;2022-09-09T01:02:41;20.40;;;14.73;;
39322;SDS011;25036;53.638;10.134;2022-09-09T01:04:02;18.35;;;14.52;;
39322;SDS011;25036;53.638;10.134;2022-09-09T01:05:18;17.77;;;14.07;;
39322;SDS011;25036;53.638;10.134;2022-09-09T01:06:30;15.52;;;13.25;;
39322;SDS011;25036;53.638;10.134;2022-09-09T01:07:31;15.73;;;13.25;;
39322;SDS011;25036;53.638;10.134;2022-09-09T01:09:51;14.18;;;12.27;;
39322;SDS011;25036;53.638;10.134;2022-09-09T01:10:52;15.52;;;12.88;;
39322;SDS011;25036;53.638;10.134;2022-09-09T01:12:07;14.10;;;12.60;;
39322;SDS011;25036;53.638;10.134;2022-09-09T01:13:13;15.32;;;12.13;;
39322;SDS011;25036;53.638;10.134;2022-09-09T01:15:29;13.88;;;11.80;;
39322;SDS011;25036;53.638;10.134;2022-09-09T01:16:30;14.52;;;12.30;;
39322;SDS011;25036;53.638;10.134;2022-09-09T01:17:35;13.63;;;12.10;;
39322;SDS011;25036;53.638;10.134;2022-09-09T01:18:39;12.57;;;11.27;;
39322;SDS011;25036;53.638;10.134;2022-09-09T01:22:03;11.70;;;10.32;;
39322;SDS011;25036;53.638;10.134;2022-09-09T01:26:43;12.20;;;10.93;;
39322;SDS011;25036;53.638;10.134;2022-09-09T01:27:43;11.60;;;10.35;;
39322;SDS011;25036;53.638;10.134;2022-09-09T01:28:48;12.40;;;11.10;;
39322;SDS011;25036;53.638;10.134;2022-09-09T01:29:49;12.02;;;10.82;;
39322;SDS011;25036;53.638;10.134;2022-09-09T01:30:49;12.05;;;10.75;;
39322;SDS011;25036;53.638;10.134;2022-09-09T01:32:00;12.85;;;11.32;;
39322;SDS011;25036;53.638;10.134;2022-09-09T01:33:00;12.48;;;11.27;;
39322;SDS011;25036;53.638;10.134;2022-09-09T01:34:04;12.68;;;11.38;;
39322;SDS011;25036;53.638;10.134;2022-09-09T01:35:26;11.45;;;10.27;;
39322;SDS011;25036;53.638;10.134;2022-09-09T01:37:59;12.68;;;11.20;;
39322;SDS011;25036;53.638;10.134;2022-09-09T01:38:59;12.05;;;10.70;;
39322;SDS011;25036;53.638;10.134;2022-09-09T01:40:00;12.47;;;11.00;;
39322;SDS011;25036;53.638;10.134;2022-09-09T01:41:00;12.47;;;11.13;;
39322;SDS011;25036;53.638;10.134;2022-09-09T01:42:00;12.90;;;11.52;;
39322;SDS011;25036;53.638;10.134;2022-09-09T01:43:01;12.27;;;10.98;;
39322;SDS011;25036;53.638;10.134;2022-09-09T01:44:01;12.20;;;10.85;;
39322;SDS011;25036;53.638;10.134;2022-09-09T01:45:02;11.70;;;10.50;;
39322;SDS011;25036;53.638;10.134;2022-09-09T01:46:03;12.00;;;10.80;;
39322;SDS011;25036;53.638;10.134;2022-09-09T01:47:03;12.32;;;11.07;;
39322;SDS011;25036;53.638;10.134;2022-09-09T01:48:04;12.65;;;11.35;;
39322;SDS011;25036;53.638;10.134;2022-09-09T01:49:05;11.90;;;10.60;;
39322;SDS011;25036;53.638;10.134;2022-09-09T01:50:07;11.85;;;10.70;;
39322;SDS011;25036;53.638;10.134;2022-09-09T01:51:10;11.77;;;10.57;;
39322;SDS011;25036;53.638;10.134;2022-09-09T01:52:10;12.13;;;10.87;;
39322;SDS011;25036;53.638;10.134;2022-09-09T01:53:10;12.80;;;11.37;;
39322;SDS011;25036;53.638;10.134;2022-09-09T01:54:11;13.10;;;11.70;;
39322;SDS011;25036;53.638;10.134;2022-09-09T01:55:11;12.43;;;11.13;;
39322;SDS011;25036;53.638;10.134;2022-09-09T01:56:15;13.45;;;11.18;;
39322;SDS011;25036;53.638;10.134;2022-09-09T01:59:41;12.48;;;10.73;;
39322;SDS011;25036;53.638;10.134;2022-09-09T02:00:48;12.48;;;11.18;;
39322;SDS011;25036;53.638;10.134;2022-09-09T02:03:56;11.85;;;10.55;;
39322;SDS011;25036;53.638;10.134;2022-09-09T02:04:57;13.00;;;11.70;;
39322;SDS011;25036;53.638;10.134;2022-09-09T02:06:23;12.13;;;10.82;;
39322;SDS011;25036;53.638;10.134;2022-09-09T02:07:35;11.90;;;10.70;;
39322;SDS011;25036;53.638;10.134;2022-09-09T02:08:48;13.43;;;11.02;;
39322;SDS011;25036;53.638;10.134;2022-09-09T02:09:49;13.65;;;11.27;;
39322;SDS011;25036;53.638;10.134;2022-09-09T02:10:56;12.85;;;11.13;;
39322;SDS011;25036;53.638;10.134;2022-09-09T02:12:13;15.00;;;11.40;;
39322;SDS011;25036;53.638;10.134;2022-09-09T02:13:15;12.75;;;11.40;;
39322;SDS011;25036;53.638;10.134;2022-09-09T02:14:16;12.77;;;11.48;;
39322;SDS011;25036;53.638;10.134;2022-09-09T02:15:26;12.68;;;10.48;;
39322;SDS011;25036;53.638;10.134;2022-09-09T02:17:35;13.45;;;11.10;;
39322;SDS011;25036;53.638;10.134;2022-09-09T02:18:40;14.13;;;11.27;;
39322;SDS011;25036;53.638;10.134;2022-09-09T02:19:44;11.75;;;10.55;;
39322;SDS011;25036;53.638;10.134;2022-09-09T02:20:45;12.57;;;11.00;;
39322;SDS011;25036;53.638;10.134;2022-09-09T02:21:46;12.23;;;10.93;;
39322;SDS011;25036;53.638;10.134;2022-09-09T02:22:47;12.75;;;11.50;;
39322;SDS011;25036;53.638;10.134;2022-09-09T02:23:49;12.40;;;11.10;;
39322;SDS011;25036;53.638;10.134;2022-09-09T02:24:51;13.95;;;11.27;;
39322;SDS011;25036;53.638;10.134;2022-09-09T02:25:55;11.90;;;10.70;;
39322;SDS011;25036;53.638;10.134;2022-09-09T02:26:58;13.32;;;10.73;;
39322;SDS011;25036;53.638;10.134;2022-09-09T02:27:58;13.63;;;10.35;;
39322;SDS011;25036;53.638;10.134;2022-09-09T02:28:59;12.38;;;11.18;;
39322;SDS011;25036;53.638;10.134;2022-09-09T02:30:01;14.52;;;10.30;;
39322;SDS011;25036;53.638;10.134;2022-09-09T02:31:02;12.48;;;10.93;;
39322;SDS011;25036;53.638;10.134;2022-09-09T02:32:05;13.75;;;11.18;;
39322;SDS011;25036;53.638;10.134;2022-09-09T02:33:06;11.65;;;10.07;;
39322;SDS011;25036;53.638;10.134;2022-09-09T02:34:07;12.68;;;11.38;;
39322;SDS011;25036;53.638;10.134;2022-09-09T02:35:12;11.82;;;10.63;;
39322;SDS011;25036;53.638;10.134;2022-09-09T02:36:13;13.52;;;11.23;;
39322;SDS011;25036;53.638;10.134;2022-09-09T02:37:17;13.23;;;10.50;;
39322;SDS011;25036;53.638;10.134;2022-09-09T02:38:18;12.43;;;11.07;;
39322;SDS011;25036;53.638;10.134;2022-09-09T02:39:20;11.52;;;10.40;;
39322;SDS011;25036;53.638;10.134;2022-09-09T02:40:20;14.23;;;10.67;;
39322;SDS011;25036;53.638;10.134;2022-09-09T02:41:25;14.68;;;10.35;;
39322;SDS011;25036;53.638;10.134;2022-09-09T02:42:25;12.45;;;10.90;;
39322;SDS011;25036;53.638;10.134;2022-09-09T02:43:30;11.70;;;10.43;;
39322;SDS011;25036;53.638;10.134;2022-09-09T02:44:31;12.25;;;11.00;;
39322;SDS011;25036;53.638;10.134;2022-09-09T02:45:33;13.63;;;10.80;;
39322;SDS011;25036;53.638;10.134;2022-09-09T02:46:38;11.88;;;10.70;;
39322;SDS011;25036;53.638;10.134;2022-09-09T02:48:05;12.82;;;10.32;;
39322;SDS011;25036;53.638;10.134;2022-09-09T02:50:19;12.18;;;11.02;;
39322;SDS011;25036;53.638;10.134;2022-09-09T02:51:46;13.27;;;10.57;;
39322;SDS011;25036;53.638;10.134;2022-09-09T02:53:05;12.05;;;10.85;;
39322;SDS011;25036;53.638;10.134;2022-09-09T02:54:26;13.48;;;11.00;;
39322;SDS011;25036;53.638;10.134;2022-09-09T02:56:49;12.63;;;10.75;;
39322;SDS011;25036;53.638;10.134;2022-09-09T02:57:51;13.55;;;11.82;;
39322;SDS011;25036;53.638;10.134;2022-09-09T02:58:51;12.05;;;10.65;;
39322;SDS011;25036;53.638;10.134;2022-09-09T02:59:51;12.10;;;10.80;;
39322;SDS011;25036;53.638;10.134;2022-09-09T03:00:52;12.15;;;10.85;;
39322;SDS011;25036;53.638;10.134;2022-09-09T03:01:53;13.27;;;10.88;;
39322;SDS011;25036;53.638;10.134;2022-09-09T03:02:53;13.75;;;11.43;;
39322;SDS011;25036;53.638;10.134;2022-09-09T03:03:54;12.32;;;11.05;;
39322;SDS011;25036;53.638;10.134;2022-09-09T03:04:55;12.27;;;10.73;;
39322;SDS011;25036;53.638;10.134;2022-09-09T03:05:55;13.27;;;11.70;;
39322;SDS011;25036;53.638;10.134;2022-09-09T03:06:56;12.55;;;11.23;;
39322;SDS011;25036;53.638;10.134;2022-09-09T03:07:56;11.50;;;10.30;;
39322;SDS011;25036;53.638;10.134;2022-09-09T03:08:56;12.73;;;11.32;;
39322;SDS011;25036;53.638;10.134;2022-09-09T03:09:57;12.00;;;10.73;;
39322;SDS011;25036;53.638;10.134;2022-09-09T03:10:58;12.93;;;11.52;;
39322;SDS011;25036;53.638;10.134;2022-09-09T03:11:59;12.80;;;11.50;;
39322;SDS011;25036;53.638;10.134;2022-09-09T03:12:59;12.00;;;10.77;;
39322;SDS011;25036;53.638;10.134;2022-09-09T03:13:59;12.68;;;11.40;;
39322;SDS011;25036;53.638;10.134;2022-09-09T03:14:59;12.90;;;11.60;;
39322;SDS011;25036;53.638;10.134;2022-09-09T03:15:59;12.60;;;11.30;;
39322;SDS011;25036;53.638;10.134;2022-09-09T03:17:00;12.30;;;11.00;;
39322;SDS011;25036;53.638;10.134;2022-09-09T03:18:02;11.82;;;10.45;;
39322;SDS011;25036;53.638;10.134;2022-09-09T03:19:02;14.75;;;10.80;;
39322;SDS011;25036;53.638;10.134;2022-09-09T03:20:05;12.88;;;11.48;;
39322;SDS011;25036;53.638;10.134;2022-09-09T03:21:07;12.13;;;10.63;;
39322;SDS011;25036;53.638;10.134;2022-09-09T03:22:09;12.65;;;10.52;;
39322;SDS011;25036;53.638;10.134;2022-09-09T03:23:09;12.32;;;10.60;;
39322;SDS011;25036;53.638;10.134;2022-09-09T03:24:09;10.77;;;9.67;;
39322;SDS011;25036;53.638;10.134;2022-09-09T03:25:09;12.33;;;11.03;;
39322;SDS011;25036;53.638;10.134;2022-09-09T03:26:10;11.97;;;10.77;;
39322;SDS011;25036;53.638;10.134;2022-09-09T03:27:10;11.82;;;10.63;;
39322;SDS011;25036;53.638;10.134;2022-09-09T03:28:10;11.50;;;9.87;;
39322;SDS011;25036;53.638;10.134;2022-09-09T03:29:11;11.63;;;10.43;;
39322;SDS011;25036;53.638;10.134;2022-09-09T03:30:12;11.55;;;10.35;;
39322;SDS011;25036;53.638;10.134;2022-09-09T03:31:12;11.60;;;9.75;;
39322;SDS011;25036;53.638;10.134;2022-09-09T03:32:12;11.93;;;10.73;;
39322;SDS011;25036;53.638;10.134;2022-09-09T03:33:12;11.32;;;10.18;;
39322;SDS011;25036;53.638;10.134;2022-09-09T03:34:13;10.83;;;9.73;;
39322;SDS011;25036;53.638;10.134;2022-09-09T03:35:13;11.48;;;10.27;;
39322;SDS011;25036;53.638;10.134;2022-09-09T03:36:14;11.13;;;10.02;;
39322;SDS011;25036;53.638;10.134;2022-09-09T03:37:15;11.68;;;10.18;;
39322;SDS011;25036;53.638;10.134;2022-09-09T03:38:15;13.27;;;11.07;;
39322;SDS011;25036;53.638;10.134;2022-09-09T03:39:15;11.50;;;9.10;;
39322;SDS011;25036;53.638;10.134;2022-09-09T03:40:16;12.32;;;11.10;;
39322;SDS011;25036;53.638;10.134;2022-09-09T03:41:16;13.07;;;11.68;;
39322;SDS011;25036;53.638;10.134;2022-09-09T03:42:17;14.63;;;11.88;;
39322;SDS011;25036;53.638;10.134;2022-09-09T03:43:18;14.82;;;12.20;;
39322;SDS011;25036;53.638;10.134;2022-09-09T03:44:19;13.13;;;11.73;;
39322;SDS011;25036;53.638;10.134;2022-09-09T03:45:19;13.45;;;12.10;;
39322;SDS011;25036;53.638;10.134;2022-09-09T03:46:20;13.97;;;12.43;;
39322;SDS011;25036;53.638;10.134;2022-09-09T03:47:21;13.48;;;12.07;;
39322;SDS011;25036;53.638;10.134;2022-09-09T03:48:24;14.50;;;12.70;;
39322;SDS011;25036;53.638;10.134;2022-09-09T03:49:25;15.10;;;12.85;;
39322;SDS011;25036;53.638;10.134;2022-09-09T03:50:26;14.25;;;12.85;;
39322;SDS011;25036;53.638;10.134;2022-09-09T03:51:26;14.17;;;12.77;;
39322;SDS011;25036;53.638;10.134;2022-09-09T03:52:26;13.70;;;12.30;;
39322;SDS011;25036;53.638;10.134;2022-09-09T03:53:27;14.60;;;13.10;;
39322;SDS011;25036;53.638;10.134;2022-09-09T03:54:27;13.15;;;11.85;;
39322;SDS011;25036;53.638;10.134;2022-09-09T03:55:27;14.33;;;12.53;;
39322;SDS011;25036;53.638;10.134;2022-09-09T03:56:27;14.30;;;12.90;;
39322;SDS011;25036;53.638;10.134;2022-09-09T03:57:27;14.47;;;12.83;;
39322;SDS011;25036;53.638;10.134;2022-09-09T03:58:29;14.63;;;13.13;;
39322;SDS011;25036;53.638;10.134;2022-09-09T03:59:30;13.67;;;12.27;;
39322;SDS011;25036;53.638;10.134;2022-09-09T04:00:30;14.10;;;12.43;;
39322;SDS011;25036;53.638;10.134;2022-09-09T04:01:30;13.60;;;12.30;;
39322;SDS011;25036;53.638;10.134;2022-09-09T04:02:30;14.33;;;12.80;;
39322;SDS011;25036;53.638;10.134;2022-09-09T04:03:31;13.95;;;12.45;;
39322;SDS011;25036;53.638;10.134;2022-09-09T04:04:31;14.00;;;12.55;;
39322;SDS011;25036;53.638;10.134;2022-09-09T04:05:32;14.20;;;12.75;;
39322;SDS011;25036;53.638;10.134;2022-09-09T04:06:33;14.60;;;12.82;;
39322;SDS011;25036;53.638;10.134;2022-09-09T04:07:34;14.23;;;12.63;;
39322;SDS011;25036;53.638;10.134;2022-09-09T04:08:34;15.23;;;13.50;;
39322;SDS011;25036;53.638;10.134;2022-09-09T04:09:35;14.05;;;12.60;;
39322;SDS011;25036;53.638;10.134;2022-09-09T04:10:36;14.20;;;12.80;;
39322;SDS011;25036;53.638;10.134;2022-09-09T04:11:37;15.18;;;12.50;;
39322;SDS011;25036;53.638;10.134;2022-09-09T04:12:37;14.03;;;12.30;;
39322;SDS011;25036;53.638;10.134;2022-09-09T04:13:37;14.10;;;12.53;;
39322;SDS011;25036;53.638;10.134;2022-09-09T04:14:39;14.48;;;12.73;;
39322;SDS011;25036;53.638;10.134;2022-09-09T04:15:39;14.93;;;13.32;;
39322;SDS011;25036;53.638;10.134;2022-09-09T04:16:39;14.03;;;12.63;;
39322;SDS011;25036;53.638;10.134;2022-09-09T04:17:41;13.60;;;12.10;;
39322;SDS011;25036;53.638;10.134;2022-09-09T04:18:42;14.20;;;12.70;;
39322;SDS011;25036;53.638;10.134;2022-09-09T04:19:42;14.05;;;12.73;;
39322;SDS011;25036;53.638;10.134;2022-09-09T04:20:42;13.83;;;12.40;;
39322;SDS011;25036;53.638;10.134;2022-09-09T04:21:43;17.15;;;13.05;;
39322;SDS011;25036;53.638;10.134;2022-09-09T04:22:43;14.02;;;12.55;;
39322;SDS011;25036;53.638;10.134;2022-09-09T04:23:43;14.27;;;12.70;;
39322;SDS011;25036;53.638;10.134;2022-09-09T04:24:43;14.97;;;13.07;;
39322;SDS011;25036;53.638;10.134;2022-09-09T04:25:47;16.07;;;11.77;;
39322;SDS011;25036;53.638;10.134;2022-09-09T04:26:48;13.57;;;12.18;;
39322;SDS011;25036;53.638;10.134;2022-09-09T04:27:53;13.00;;;11.75;;
39322;SDS011;25036;53.638;10.134;2022-09-09T04:28:54;13.57;;;11.98;;
39322;SDS011;25036;53.638;10.134;2022-09-09T04:29:55;13.73;;;12.18;;
39322;SDS011;25036;53.638;10.134;2022-09-09T04:30:57;13.63;;;11.93;;
39322;SDS011;25036;53.638;10.134;2022-09-09T04:31:57;13.65;;;12.25;;
39322;SDS011;25036;53.638;10.134;2022-09-09T04:32:57;12.63;;;11.33;;
39322;SDS011;25036;53.638;10.134;2022-09-09T04:33:57;14.20;;;11.90;;
39322;SDS011;25036;53.638;10.134;2022-09-09T04:34:57;14.60;;;13.20;;
39322;SDS011;25036;53.638;10.134;2022-09-09T04:35:58;13.93;;;12.53;;
39322;SDS011;25036;53.638;10.134;2022-09-09T04:36:58;13.07;;;11.63;;
39322;SDS011;25036;53.638;10.134;2022-09-09T04:37:58;13.23;;;11.93;;
39322;SDS011;25036;53.638;10.134;2022-09-09T04:38:59;13.63;;;12.23;;
39322;SDS011;25036;53.638;10.134;2022-09-09T04:39:59;12.97;;;11.37;;
39322;SDS011;25036;53.638;10.134;2022-09-09T04:41:01;14.27;;;11.48;;
39322;SDS011;25036;53.638;10.134;2022-09-09T04:42:02;13.00;;;11.77;;
39322;SDS011;25036;53.638;10.134;2022-09-09T04:43:03;13.85;;;11.85;;
39322;SDS011;25036;53.638;10.134;2022-09-09T04:44:06;13.00;;;11.70;;
39322;SDS011;25036;53.638;10.134;2022-09-09T04:45:07;14.03;;;12.00;;
39322;SDS011;25036;53.638;10.134;2022-09-09T04:46:07;13.30;;;11.90;;
39322;SDS011;25036;53.638;10.134;2022-09-09T04:47:07;12.57;;;11.27;;
39322;SDS011;25036;53.638;10.134;2022-09-09T04:48:07;12.60;;;11.27;;
39322;SDS011;25036;53.638;10.134;2022-09-09T04:49:07;12.05;;;10.85;;
39322;SDS011;25036;53.638;10.134;2022-09-09T04:50:08;11.70;;;10.60;;
39322;SDS011;25036;53.638;10.134;2022-09-09T04:51:09;14.25;;;11.68;;
39322;SDS011;25036;53.638;10.134;2022-09-09T04:52:10;12.15;;;10.88;;
39322;SDS011;25036;53.638;10.134;2022-09-09T04:53:11;13.32;;;12.02;;
39322;SDS011;25036;53.638;10.134;2022-09-09T04:54:11;12.05;;;10.82;;
39322;SDS011;25036;53.638;10.134;2022-09-09T04:55:11;11.70;;;10.50;;
39322;SDS011;25036;53.638;10.134;2022-09-09T04:56:14;12.30;;;11.07;;
39322;SDS011;25036;53.638;10.134;2022-09-09T04:57:14;11.45;;;10.25;;
39322;SDS011;25036;53.638;10.134;2022-09-09T04:58:14;12.50;;;11.02;;
39322;SDS011;25036;53.638;10.134;2022-09-09T04:59:14;11.87;;;10.53;;
39322;SDS011;25036;53.638;10.134;2022-09-09T05:00:15;12.37;;;11.10;;
39322;SDS011;25036;53.638;10.134;2022-09-09T05:01:19;12.10;;;10.77;;
39322;SDS011;25036;53.638;10.134;2022-09-09T05:02:19;12.60;;;11.18;;
39322;SDS011;25036;53.638;10.134;2022-09-09T05:03:19;12.60;;;11.30;;
39322;SDS011;25036;53.638;10.134;2022-09-09T05:04:19;12.00;;;10.80;;
39322;SDS011;25036;53.638;10.134;2022-09-09T05:05:19;11.93;;;10.80;;
39322;SDS011;25036;53.638;10.134;2022-09-09T05:06:20;14.07;;;11.18;;
39322;SDS011;25036;53.638;10.134;2022-09-09T05:07:21;12.00;;;10.80;;
39322;SDS011;25036;53.638;10.134;2022-09-09T05:08:21;11.93;;;10.52;;
39322;SDS011;25036;53.638;10.134;2022-09-09T05:09:22;13.32;;;11.50;;
39322;SDS011;25036;53.638;10.134;2022-09-09T05:10:22;12.55;;;11.25;;
39322;SDS011;25036;53.638;10.134;2022-09-09T05:11:24;11.93;;;10.73;;
39322;SDS011;25036;53.638;10.134;2022-09-09T05:12:25;11.75;;;10.65;;
39322;SDS011;25036;53.638;10.134;2022-09-09T05:13:26;11.32;;;10.23;;
39322;SDS011;25036;53.638;10.134;2022-09-09T05:14:26;11.73;;;10.52;;
39322;SDS011;25036;53.638;10.134;2022-09-09T05:15:27;12.98;;;11.48;;
39322;SDS011;25036;53.638;10.134;2022-09-09T05:16:27;11.50;;;10.37;;
39322;SDS011;25036;53.638;10.134;2022-09-09T05:17:27;12.47;;;10.80;;
39322;SDS011;25036;53.638;10.134;2022-09-09T05:18:27;11.63;;;10.43;;
39322;SDS011;25036;53.638;10.134;2022-09-09T05:19:27;11.93;;;10.70;;
39322;SDS011;25036;53.638;10.134;2022-09-09T05:20:28;11.95;;;10.82;;
39322;SDS011;25036;53.638;10.134;2022-09-09T05:21:28;12.80;;;10.50;;
39322;SDS011;25036;53.638;10.134;2022-09-09T05:22:30;12.18;;;10.85;;
39322;SDS011;25036;53.638;10.134;2022-09-09T05:23:31;12.57;;;10.77;;
39322;SDS011;25036;53.638;10.134;2022-09-09T05:24:31;12.45;;;11.07;;
39322;SDS011;25036;53.638;10.134;2022-09-09T05:25:33;11.05;;;9.90;;
39322;SDS011;25036;53.638;10.134;2022-09-09T05:26:33;11.25;;;10.15;;
39322;SDS011;25036;53.638;10.134;2022-09-09T05:27:33;11.57;;;10.37;;
39322;SDS011;25036;53.638;10.134;2022-09-09T05:28:34;12.23;;;11.07;;
39322;SDS011;25036;53.638;10.134;2022-09-09T05:29:35;11.23;;;9.90;;
39322;SDS011;25036;53.638;10.134;2022-09-09T05:30:35;11.93;;;10.63;;
39322;SDS011;25036;53.638;10.134;2022-09-09T05:31:35;13.02;;;11.02;;
39322;SDS011;25036;53.638;10.134;2022-09-09T05:32:35;11.48;;;10.27;;
39322;SDS011;25036;53.638;10.134;2022-09-09T05:33:36;12.20;;;10.88;;
39322;SDS011;25036;53.638;10.134;2022-09-09T05:34:36;12.07;;;10.50;;
39322;SDS011;25036;53.638;10.134;2022-09-09T05:35:37;11.40;;;10.25;;
39322;SDS011;25036;53.638;10.134;2022-09-09T05:36:38;11.65;;;10.45;;
39322;SDS011;25036;53.638;10.134;2022-09-09T05:37:38;11.03;;;9.77;;
39322;SDS011;25036;53.638;10.134;2022-09-09T05:38:38;11.90;;;10.43;;
39322;SDS011;25036;53.638;10.134;2022-09-09T05:39:39;11.30;;;10.20;;
39322;SDS011;25036;53.638;10.134;2022-09-09T05:40:39;10.90;;;9.80;;
39322;SDS011;25036;53.638;10.134;2022-09-09T05:41:47;11.13;;;9.43;;
39322;SDS011;25036;53.638;10.134;2022-09-09T05:42:47;11.50;;;10.10;;
39322;SDS011;25036;53.638;10.134;2022-09-09T05:43:47;10.37;;;9.20;;
39322;SDS011;25036;53.638;10.134;2022-09-09T05:44:48;10.48;;;9.40;;
39322;SDS011;25036;53.638;10.134;2022-09-09T05:45:57;10.93;;;9.83;;
39322;SDS011;25036;53.638;10.134;2022-09-09T05:46:58;10.45;;;9.20;;
39322;SDS011;25036;53.638;10.134;2022-09-09T05:47:58;9.80;;;8.80;;
39322;SDS011;25036;53.638;10.134;2022-09-09T05:49:00;10.82;;;9.02;;
39322;SDS011;25036;53.638;10.134;2022-09-09T05:50:00;10.18;;;8.65;;
39322;SDS011;25036;53.638;10.134;2022-09-09T05:51:00;10.00;;;9.00;;
39322;SDS011;25036;53.638;10.134;2022-09-09T05:52:00;10.43;;;9.20;;
39322;SDS011;25036;53.638;10.134;2022-09-09T05:53:00;10.05;;;8.95;;
39322;SDS011;25036;53.638;10.134;2022-09-09T05:54:01;9.93;;;8.93;;
39322;SDS011;25036;53.638;10.134;2022-09-09T05:55:01;9.30;;;8.40;;
39322;SDS011;25036;53.638;10.134;2022-09-09T05:56:05;11.27;;;9.03;;
39322;SDS011;25036;53.638;10.134;2022-09-09T05:57:05;9.32;;;8.38;;
39322;SDS011;25036;53.638;10.134;2022-09-09T05:58:05;9.37;;;8.47;;
39322;SDS011;25036;53.638;10.134;2022-09-09T05:59:06;9.07;;;8.27;;
39322;SDS011;25036;53.638;10.134;2022-09-09T06:00:06;9.30;;;8.40;;
39322;SDS011;25036;53.638;10.134;2022-09-09T06:01:08;9.75;;;8.43;;
39322;SDS011;25036;53.638;10.134;2022-09-09T06:02:08;8.23;;;7.43;;
39322;SDS011;25036;53.638;10.134;2022-09-09T06:03:10;8.73;;;7.93;;
39322;SDS011;25036;53.638;10.134;2022-09-09T06:04:10;8.27;;;7.32;;
39322;SDS011;25036;53.638;10.134;2022-09-09T06:05:10;8.60;;;7.80;;
39322;SDS011;25036;53.638;10.134;2022-09-09T06:06:12;9.40;;;8.10;;
39322;SDS011;25036;53.638;10.134;2022-09-09T06:07:12;8.30;;;7.50;;
39322;SDS011;25036;53.638;10.134;2022-09-09T06:08:14;7.85;;;7.10;;
39322;SDS011;25036;53.638;10.134;2022-09-09T06:09:14;7.27;;;6.57;;
39322;SDS011;25036;53.638;10.134;2022-09-09T06:10:15;9.80;;;6.95;;
39322;SDS011;25036;53.638;10.134;2022-09-09T06:11:16;8.07;;;7.27;;
39322;SDS011;25036;53.638;10.134;2022-09-09T06:12:16;8.27;;;7.45;;
39322;SDS011;25036;53.638;10.134;2022-09-09T06:13:17;7.40;;;6.60;;
39322;SDS011;25036;53.638;10.134;2022-09-09T06:14:17;7.30;;;6.60;;
39322;SDS011;25036;53.638;10.134;2022-09-09T06:15:18;7.22;;;6.32;;
39322;SDS011;25036;53.638;10.134;2022-09-09T06:16:18;8.03;;;6.83;;
39322;SDS011;25036;53.638;10.134;2022-09-09T06:17:19;7.65;;;6.95;;
39322;SDS011;25036;53.638;10.134;2022-09-09T06:18:19;7.13;;;6.40;;
39322;SDS011;25036;53.638;10.134;2022-09-09T06:19:19;7.00;;;6.30;;
39322;SDS011;25036;53.638;10.134;2022-09-09T06:20:20;7.30;;;6.20;;
39322;SDS011;25036;53.638;10.134;2022-09-09T06:21:22;6.40;;;5.80;;
39322;SDS011;25036;53.638;10.134;2022-09-09T06:22:23;7.90;;;6.90;;
39322;SDS011;25036;53.638;10.134;2022-09-09T06:23:24;6.40;;;5.72;;
39322;SDS011;25036;53.638;10.134;2022-09-09T06:24:25;6.80;;;6.15;;
39322;SDS011;25036;53.638;10.134;2022-09-09T06:25:25;7.43;;;6.20;;
39322;SDS011;25036;53.638;10.134;2022-09-09T06:26:32;7.70;;;6.03;;
39322;SDS011;25036;53.638;10.134;2022-09-09T06:27:33;6.35;;;5.72;;
39322;SDS011;25036;53.638;10.134;2022-09-09T06:28:33;6.70;;;6.00;;
39322;SDS011;25036;53.638;10.134;2022-09-09T06:29:33;6.45;;;5.85;;
39322;SDS011;25036;53.638;10.134;2022-09-09T06:30:34;9.27;;;6.72;;
39322;SDS011;25036;53.638;10.134;2022-09-09T06:31:34;9.85;;;6.28;;
39322;SDS011;25036;53.638;10.134;2022-09-09T06:32:36;7.38;;;5.50;;
39322;SDS011;25036;53.638;10.134;2022-09-09T06:33:38;5.78;;;5.28;;
39322;SDS011;25036;53.638;10.134;2022-09-09T06:34:41;6.47;;;5.78;;
39322;SDS011;25036;53.638;10.134;2022-09-09T06:35:42;7.23;;;5.03;;
39322;SDS011;25036;53.638;10.134;2022-09-09T06:36:42;6.93;;;5.00;;
39322;SDS011;25036;53.638;10.134;2022-09-09T06:37:44;6.43;;;5.70;;
39322;SDS011;25036;53.638;10.134;2022-09-09T06:38:45;5.75;;;5.25;;